createdAt,value
2023-03-22T00:04:29.298Z,22.50
2023-03-22T00:09:34.068Z,21.13
2023-03-22T00:14:37.620Z,21.70
2023-03-22T00:19:42.219Z,20.40
2023-03-22T00:24:47.221Z,21.20
2023-03-22T00:29:52.571Z,22.30
2023-03-22T00:34:55.962Z,23.67
2023-03-22T00:40:00.727Z,25.60
2023-03-22T00:45:04.810Z,23.38
2023-03-22T00:50:11.147Z,24.98
2023-03-22T00:55:15.878Z,24.33
2023-03-22T01:00:20.164Z,23.13
2023-03-22T01:05:23.780Z,23.85
2023-03-22T01:10:28.701Z,22.58
2023-03-22T01:15:32.470Z,19.88
2023-03-22T01:20:36.631Z,20.48
2023-03-22T01:25:41.415Z,22.27
2023-03-22T01:30:44.867Z,21.17
2023-03-22T01:35:48.347Z,23.05
2023-03-22T01:40:53.224Z,21.55
2023-03-22T01:45:56.982Z,20.13
2023-03-22T01:51:05.217Z,21.63
2023-03-22T01:56:11.507Z,21.73
2023-03-22T02:01:16.119Z,20.15
2023-03-22T02:06:20.376Z,20.42
2023-03-22T02:11:31.677Z,20.33
2023-03-22T02:16:42.174Z,21.30
2023-03-22T02:22:25.924Z,22.30
2023-03-22T02:27:43.996Z,20.83
2023-03-22T02:33:17.407Z,21.80
2023-03-22T02:38:55.051Z,20.05
2023-03-22T02:44:08.029Z,20.88
2023-03-22T02:49:19.627Z,19.35
2023-03-22T02:54:28.751Z,19.63
2023-03-22T02:59:38.488Z,20.48
2023-03-22T03:04:46.358Z,18.52
2023-03-22T03:09:51.336Z,20.13
2023-03-22T03:14:56.348Z,20.40
2023-03-22T03:20:21.913Z,18.25
2023-03-22T03:25:29.338Z,19.52
2023-03-22T03:30:38.979Z,18.75
2023-03-22T03:35:48.705Z,20.70
2023-03-22T03:40:55.289Z,19.70
2023-03-22T03:46:01.111Z,19.80
2023-03-22T03:51:05.117Z,17.50
2023-03-22T03:56:09.472Z,18.88
2023-03-22T04:01:14.293Z,19.00
2023-03-22T04:06:18.080Z,19.90
2023-03-22T04:11:21.489Z,18.85
2023-03-22T04:16:26.886Z,18.75
2023-03-22T04:21:30.648Z,18.98
2023-03-22T04:26:34.561Z,19.70
2023-03-22T04:31:39.543Z,19.40
2023-03-22T04:36:42.970Z,19.52
2023-03-22T04:41:46.329Z,18.35
2023-03-22T04:46:51.148Z,18.48
2023-03-22T04:51:54.597Z,19.27
2023-03-22T04:56:58.244Z,19.95
2023-03-22T05:02:03.723Z,20.33
2023-03-22T05:07:07.110Z,20.85
2023-03-22T05:12:11.032Z,23.83
2023-03-22T05:17:16.604Z,21.42
2023-03-22T05:22:22.415Z,22.25
2023-03-22T05:27:31.732Z,24.60
2023-03-22T05:32:37.703Z,22.33
2023-03-22T05:37:41.558Z,21.63
2023-03-22T05:42:45.427Z,22.17
2023-03-22T05:47:50.582Z,21.77
2023-03-22T05:52:54.097Z,20.60
2023-03-22T05:57:57.984Z,20.63
2023-03-22T06:03:03.756Z,19.83
2023-03-22T06:08:07.281Z,20.17
2023-03-22T06:13:10.879Z,19.80
2023-03-22T06:18:15.859Z,21.83
2023-03-22T06:23:19.376Z,23.98
2023-03-22T06:28:22.857Z,21.73
2023-03-22T06:33:27.719Z,22.63
2023-03-22T06:38:31.214Z,20.30
2023-03-22T06:43:34.587Z,21.08
2023-03-22T06:48:39.318Z,22.27
2023-03-22T06:53:42.927Z,23.70
2023-03-22T06:58:46.608Z,23.05
2023-03-22T07:03:51.700Z,23.27
2023-03-22T07:08:55.531Z,22.25
2023-03-22T07:13:59.164Z,19.70
2023-03-22T07:19:04.740Z,20.70
2023-03-22T07:24:09.235Z,20.60
2023-03-22T07:29:12.707Z,20.10
2023-03-22T07:34:17.629Z,20.42
2023-03-22T07:39:21.253Z,20.73
2023-03-22T07:44:25.319Z,20.65
2023-03-22T07:49:31.209Z,19.52
2023-03-22T07:54:34.837Z,20.20
2023-03-22T07:59:40.095Z,19.33
2023-03-22T08:04:45.067Z,19.08
2023-03-22T08:09:49.541Z,20.75
2023-03-22T08:14:53.244Z,19.50
2023-03-22T08:19:58.417Z,19.27
2023-03-22T08:25:01.861Z,19.33
2023-03-22T08:30:06.765Z,19.95
2023-03-22T08:35:12.886Z,18.02
2023-03-22T08:40:16.457Z,18.15
2023-03-22T08:45:20.252Z,19.80
2023-03-22T08:50:25.104Z,17.23
2023-03-22T08:55:28.535Z,18.60
2023-03-22T09:00:47.406Z,18.52
2023-03-22T09:05:59.494Z,18.13
2023-03-22T09:11:05.650Z,17.83
2023-03-22T09:16:10.405Z,16.83
2023-03-22T09:21:17.398Z,18.00
2023-03-22T09:26:22.883Z,18.30
2023-03-22T09:31:27.675Z,18.27
2023-03-22T09:36:34.359Z,15.05
2023-03-22T09:41:41.446Z,14.55
2023-03-22T09:46:48.242Z,14.55
2023-03-22T09:51:54.850Z,16.27
2023-03-22T09:57:03.684Z,15.55
2023-03-22T10:02:32.742Z,14.25
2023-03-22T10:07:48.016Z,14.73
2023-03-22T10:12:59.992Z,13.02
2023-03-22T10:18:07.500Z,13.32
2023-03-22T10:23:17.913Z,14.07
2023-03-22T10:28:24.789Z,11.43
2023-03-22T10:33:36.769Z,12.15
2023-03-22T10:38:47.658Z,10.95
2023-03-22T10:43:54.695Z,12.88
2023-03-22T10:49:00.866Z,11.90
2023-03-22T10:54:06.117Z,11.43
2023-03-22T10:59:12.059Z,11.77
2023-03-22T11:04:17.427Z,11.40
2023-03-22T11:09:24.604Z,11.88
2023-03-22T11:14:31.955Z,11.82
2023-03-22T11:19:37.242Z,11.77
2023-03-22T11:24:42.655Z,11.63
2023-03-22T11:29:48.189Z,12.32
2023-03-22T11:35:01.548Z,12.38
2023-03-22T11:40:10.901Z,11.95
2023-03-22T11:45:17.149Z,12.15
2023-03-22T11:50:29.698Z,10.60
2023-03-22T11:55:36.624Z,11.38
2023-03-22T12:00:40.858Z,11.00
2023-03-22T12:05:47.545Z,10.80
2023-03-22T12:10:58.655Z,10.55
2023-03-22T12:16:06.046Z,9.32
2023-03-22T12:21:11.843Z,8.45
2023-03-22T12:26:21.656Z,9.82
2023-03-22T12:31:28.481Z,8.65
2023-03-22T12:36:39.101Z,7.13
2023-03-22T12:41:49.655Z,6.30
2023-03-22T12:46:57.634Z,6.45
2023-03-22T12:52:13.041Z,5.90
2023-03-22T12:57:18.471Z,6.18
2023-03-22T13:02:30.206Z,5.57
2023-03-22T13:07:52.538Z,5.47
2023-03-22T13:13:15.871Z,5.47
2023-03-22T13:18:33.470Z,4.63
2023-03-22T13:23:53.293Z,4.28
2023-03-22T13:29:01.311Z,3.88
2023-03-22T13:34:05.498Z,3.95
2023-03-22T13:39:12.472Z,4.65
2023-03-22T13:44:29.815Z,4.60
2023-03-22T13:49:50.012Z,5.20
2023-03-22T13:54:57.198Z,4.20
2023-03-22T14:00:14.926Z,5.28
2023-03-22T14:05:22.308Z,3.97
2023-03-22T14:10:28.205Z,5.07
2023-03-22T14:15:38.560Z,3.53
2023-03-22T14:20:42.535Z,2.60
